Terminal Aerodrome Forecast
Issued by NWS Cleveland, OH

Home | Current Version | Previous Version | Text Only | Print | Product List | Glossary On
Versions: 1 2 3 4 5 6 7 8 9 10 11 12 13 14 15 16 17 18 19 20 21 22 23 24 25 26 27 28
695
FTUS41 KCLE 161122
TAFYNG
TAF
KYNG 161122Z 1612/1712 18008KT 6SM -SHRA OVC025
      TEMPO 1612/1614 4SM -TSRA OVC015CB
     FM161800 25012G18KT P6SM OVC040
      TEMPO 1618/1621 4SM -SHRA OVC025
     FM162100 24011KT P6SM OVC025 PROB30 1622/1623 4SM -SHRA OVC015
     FM162300 25012KT 6SM -SHRA OVC015
     FM170300 28011KT 6SM -SHRA OVC020
     FM171100 30014KT 6SM -SHRA OVC015=

USA.gov is the U.S. government's official web portal to all federal, state and local government web resources and services.